sensor_id;sensor_type;location;lat;lon;timestamp;P1;durP1;ratioP1;P2;durP2;ratioP2
79015;SDS011;72726;44.842;37.556;2024-02-26T00:00:26;9.70;;;3.90;;
79015;SDS011;72726;44.842;37.556;2024-02-26T00:01:31;9.68;;;3.90;;
79015;SDS011;72726;44.842;37.556;2024-02-26T00:02:33;9.80;;;3.80;;
79015;SDS011;72726;44.842;37.556;2024-02-26T00:03:38;10.27;;;3.72;;
79015;SDS011;72726;44.842;37.556;2024-02-26T00:04:42;8.15;;;3.90;;
79015;SDS011;72726;44.842;37.556;2024-02-26T00:05:43;11.77;;;3.63;;
79015;SDS011;72726;44.842;37.556;2024-02-26T00:06:44;10.38;;;3.85;;
79015;SDS011;72726;44.842;37.556;2024-02-26T00:07:45;9.52;;;4.03;;
79015;SDS011;72726;44.842;37.556;2024-02-26T00:08:47;12.07;;;4.43;;
79015;SDS011;72726;44.842;37.556;2024-02-26T00:09:48;8.95;;;3.90;;
79015;SDS011;72726;44.842;37.556;2024-02-26T00:10:50;12.55;;;4.47;;
79015;SDS011;72726;44.842;37.556;2024-02-26T00:11:51;10.02;;;3.88;;
79015;SDS011;72726;44.842;37.556;2024-02-26T00:12:52;9.00;;;3.67;;
79015;SDS011;72726;44.842;37.556;2024-02-26T00:13:53;9.95;;;3.75;;
79015;SDS011;72726;44.842;37.556;2024-02-26T00:14:54;10.50;;;4.80;;
79015;SDS011;72726;44.842;37.556;2024-02-26T00:16:01;9.05;;;4.10;;
79015;SDS011;72726;44.842;37.556;2024-02-26T00:17:02;14.55;;;4.22;;
79015;SDS011;72726;44.842;37.556;2024-02-26T00:18:03;10.93;;;4.28;;
79015;SDS011;72726;44.842;37.556;2024-02-26T00:19:04;11.18;;;4.30;;
79015;SDS011;72726;44.842;37.556;2024-02-26T00:20:05;14.38;;;4.47;;
79015;SDS011;72726;44.842;37.556;2024-02-26T00:21:10;12.65;;;4.03;;
79015;SDS011;72726;44.842;37.556;2024-02-26T00:22:12;9.07;;;3.97;;
79015;SDS011;72726;44.842;37.556;2024-02-26T00:23:16;8.93;;;3.80;;
79015;SDS011;72726;44.842;37.556;2024-02-26T00:24:17;10.98;;;3.92;;
79015;SDS011;72726;44.842;37.556;2024-02-26T00:25:18;10.02;;;4.50;;
79015;SDS011;72726;44.842;37.556;2024-02-26T00:26:19;12.35;;;4.07;;
79015;SDS011;72726;44.842;37.556;2024-02-26T00:27:20;10.10;;;3.80;;
79015;SDS011;72726;44.842;37.556;2024-02-26T00:28:21;9.88;;;3.83;;
79015;SDS011;72726;44.842;37.556;2024-02-26T00:29:23;10.23;;;3.78;;
79015;SDS011;72726;44.842;37.556;2024-02-26T00:30:24;11.07;;;3.88;;
79015;SDS011;72726;44.842;37.556;2024-02-26T00:31:25;9.27;;;3.80;;
79015;SDS011;72726;44.842;37.556;2024-02-26T00:32:26;12.38;;;3.83;;
79015;SDS011;72726;44.842;37.556;2024-02-26T00:33:27;10.55;;;4.10;;
79015;SDS011;72726;44.842;37.556;2024-02-26T00:34:29;10.20;;;4.32;;
79015;SDS011;72726;44.842;37.556;2024-02-26T00:35:30;10.52;;;4.07;;
79015;SDS011;72726;44.842;37.556;2024-02-26T00:36:31;10.32;;;4.10;;
79015;SDS011;72726;44.842;37.556;2024-02-26T00:37:32;10.35;;;3.88;;
79015;SDS011;72726;44.842;37.556;2024-02-26T00:38:33;10.80;;;3.95;;
79015;SDS011;72726;44.842;37.556;2024-02-26T00:39:34;13.68;;;4.03;;
79015;SDS011;72726;44.842;37.556;2024-02-26T00:40:36;9.18;;;3.97;;
79015;SDS011;72726;44.842;37.556;2024-02-26T00:41:40;10.13;;;3.63;;
79015;SDS011;72726;44.842;37.556;2024-02-26T00:42:41;12.00;;;3.90;;
79015;SDS011;72726;44.842;37.556;2024-02-26T00:43:46;11.85;;;4.28;;
79015;SDS011;72726;44.842;37.556;2024-02-26T00:44:48;10.15;;;4.10;;
79015;SDS011;72726;44.842;37.556;2024-02-26T00:45:49;8.60;;;3.78;;
79015;SDS011;72726;44.842;37.556;2024-02-26T00:46:50;9.85;;;3.83;;
79015;SDS011;72726;44.842;37.556;2024-02-26T00:47:51;9.27;;;3.67;;
79015;SDS011;72726;44.842;37.556;2024-02-26T00:48:52;11.70;;;3.88;;
79015;SDS011;72726;44.842;37.556;2024-02-26T00:49:53;11.70;;;3.88;;
79015;SDS011;72726;44.842;37.556;2024-02-26T00:50:55;9.02;;;3.95;;
79015;SDS011;72726;44.842;37.556;2024-02-26T00:51:56;9.73;;;3.67;;
79015;SDS011;72726;44.842;37.556;2024-02-26T00:52:57;8.85;;;3.40;;
79015;SDS011;72726;44.842;37.556;2024-02-26T00:53:58;11.20;;;3.85;;
79015;SDS011;72726;44.842;37.556;2024-02-26T00:54:59;9.00;;;3.80;;
79015;SDS011;72726;44.842;37.556;2024-02-26T00:56:00;8.88;;;3.53;;
79015;SDS011;72726;44.842;37.556;2024-02-26T00:57:02;10.48;;;3.83;;
79015;SDS011;72726;44.842;37.556;2024-02-26T00:58:03;9.02;;;3.80;;
79015;SDS011;72726;44.842;37.556;2024-02-26T00:59:05;10.10;;;4.18;;
79015;SDS011;72726;44.842;37.556;2024-02-26T01:00:07;11.90;;;3.83;;
79015;SDS011;72726;44.842;37.556;2024-02-26T01:01:09;9.35;;;3.85;;
79015;SDS011;72726;44.842;37.556;2024-02-26T01:02:10;11.60;;;4.10;;
79015;SDS011;72726;44.842;37.556;2024-02-26T01:03:11;10.27;;;3.72;;
79015;SDS011;72726;44.842;37.556;2024-02-26T01:04:12;11.38;;;4.07;;
79015;SDS011;72726;44.842;37.556;2024-02-26T01:05:14;23.52;;;4.00;;
79015;SDS011;72726;44.842;37.556;2024-02-26T01:06:17;9.30;;;3.65;;
79015;SDS011;72726;44.842;37.556;2024-02-26T01:07:18;10.23;;;3.55;;
79015;SDS011;72726;44.842;37.556;2024-02-26T01:08:20;8.65;;;3.47;;
79015;SDS011;72726;44.842;37.556;2024-02-26T01:09:21;8.52;;;3.58;;
79015;SDS011;72726;44.842;37.556;2024-02-26T01:10:22;9.32;;;3.50;;
79015;SDS011;72726;44.842;37.556;2024-02-26T01:11:24;10.32;;;3.88;;
79015;SDS011;72726;44.842;37.556;2024-02-26T01:12:25;11.68;;;4.13;;
79015;SDS011;72726;44.842;37.556;2024-02-26T01:13:26;8.68;;;3.42;;
79015;SDS011;72726;44.842;37.556;2024-02-26T01:14:27;9.70;;;3.72;;
79015;SDS011;72726;44.842;37.556;2024-02-26T01:15:29;8.95;;;3.63;;
79015;SDS011;72726;44.842;37.556;2024-02-26T01:16:30;12.80;;;3.95;;
79015;SDS011;72726;44.842;37.556;2024-02-26T01:17:32;9.73;;;3.80;;
79015;SDS011;72726;44.842;37.556;2024-02-26T01:18:33;8.57;;;3.80;;
79015;SDS011;72726;44.842;37.556;2024-02-26T01:19:34;9.82;;;4.10;;
79015;SDS011;72726;44.842;37.556;2024-02-26T01:20:35;9.30;;;4.10;;
79015;SDS011;72726;44.842;37.556;2024-02-26T01:21:37;9.98;;;3.80;;
79015;SDS011;72726;44.842;37.556;2024-02-26T01:22:38;10.77;;;3.70;;
79015;SDS011;72726;44.842;37.556;2024-02-26T01:23:41;9.95;;;4.10;;
79015;SDS011;72726;44.842;37.556;2024-02-26T01:24:43;10.05;;;4.00;;
79015;SDS011;72726;44.842;37.556;2024-02-26T01:25:44;9.50;;;3.67;;
79015;SDS011;72726;44.842;37.556;2024-02-26T01:26:45;9.43;;;3.45;;
79015;SDS011;72726;44.842;37.556;2024-02-26T01:27:46;9.07;;;3.20;;
79015;SDS011;72726;44.842;37.556;2024-02-26T01:28:47;9.07;;;3.42;;
79015;SDS011;72726;44.842;37.556;2024-02-26T01:29:49;10.15;;;3.95;;
79015;SDS011;72726;44.842;37.556;2024-02-26T01:30:50;11.02;;;3.67;;
79015;SDS011;72726;44.842;37.556;2024-02-26T01:31:51;9.85;;;4.00;;
79015;SDS011;72726;44.842;37.556;2024-02-26T01:32:52;13.38;;;4.13;;
79015;SDS011;72726;44.842;37.556;2024-02-26T01:33:53;9.05;;;3.90;;
79015;SDS011;72726;44.842;37.556;2024-02-26T01:34:54;8.57;;;3.45;;
79015;SDS011;72726;44.842;37.556;2024-02-26T01:35:56;9.23;;;3.80;;
79015;SDS011;72726;44.842;37.556;2024-02-26T01:36:57;10.38;;;3.63;;
79015;SDS011;72726;44.842;37.556;2024-02-26T01:37:58;9.30;;;3.58;;
79015;SDS011;72726;44.842;37.556;2024-02-26T01:38:59;8.95;;;3.22;;
79015;SDS011;72726;44.842;37.556;2024-02-26T01:40:01;14.68;;;3.40;;
79015;SDS011;72726;44.842;37.556;2024-02-26T01:41:04;9.77;;;3.58;;
79015;SDS011;72726;44.842;37.556;2024-02-26T01:42:05;9.38;;;3.67;;
79015;SDS011;72726;44.842;37.556;2024-02-26T01:43:06;11.77;;;3.22;;
79015;SDS011;72726;44.842;37.556;2024-02-26T01:44:08;8.07;;;3.13;;
79015;SDS011;72726;44.842;37.556;2024-02-26T01:45:14;8.68;;;3.47;;
79015;SDS011;72726;44.842;37.556;2024-02-26T01:46:16;9.85;;;3.55;;
79015;SDS011;72726;44.842;37.556;2024-02-26T01:47:18;8.77;;;3.60;;
79015;SDS011;72726;44.842;37.556;2024-02-26T01:48:19;8.55;;;3.47;;
79015;SDS011;72726;44.842;37.556;2024-02-26T01:49:20;10.23;;;3.70;;
79015;SDS011;72726;44.842;37.556;2024-02-26T01:50:22;12.23;;;3.80;;
79015;SDS011;72726;44.842;37.556;2024-02-26T01:51:24;12.65;;;4.05;;
79015;SDS011;72726;44.842;37.556;2024-02-26T01:52:26;8.35;;;3.40;;
79015;SDS011;72726;44.842;37.556;2024-02-26T01:53:27;8.98;;;3.55;;
79015;SDS011;72726;44.842;37.556;2024-02-26T01:54:29;8.70;;;3.38;;
79015;SDS011;72726;44.842;37.556;2024-02-26T01:55:31;8.27;;;3.28;;
79015;SDS011;72726;44.842;37.556;2024-02-26T01:56:32;8.18;;;3.28;;
79015;SDS011;72726;44.842;37.556;2024-02-26T01:57:34;12.38;;;3.90;;
79015;SDS011;72726;44.842;37.556;2024-02-26T01:58:36;8.70;;;3.60;;
79015;SDS011;72726;44.842;37.556;2024-02-26T01:59:37;10.07;;;3.70;;
79015;SDS011;72726;44.842;37.556;2024-02-26T02:00:40;9.80;;;4.20;;
79015;SDS011;72726;44.842;37.556;2024-02-26T02:01:42;9.98;;;3.55;;
79015;SDS011;72726;44.842;37.556;2024-02-26T02:03:48;10.75;;;4.22;;
79015;SDS011;72726;44.842;37.556;2024-02-26T02:04:50;9.10;;;3.90;;
79015;SDS011;72726;44.842;37.556;2024-02-26T02:05:52;8.80;;;3.95;;
79015;SDS011;72726;44.842;37.556;2024-02-26T02:06:53;9.70;;;3.83;;
79015;SDS011;72726;44.842;37.556;2024-02-26T02:07:55;10.40;;;3.53;;
79015;SDS011;72726;44.842;37.556;2024-02-26T02:08:56;9.15;;;3.63;;
79015;SDS011;72726;44.842;37.556;2024-02-26T02:09:57;9.40;;;3.53;;
79015;SDS011;72726;44.842;37.556;2024-02-26T02:10:59;10.23;;;3.45;;
79015;SDS011;72726;44.842;37.556;2024-02-26T02:12:01;9.25;;;3.78;;
79015;SDS011;72726;44.842;37.556;2024-02-26T02:13:02;8.23;;;3.58;;
79015;SDS011;72726;44.842;37.556;2024-02-26T02:14:03;9.43;;;3.72;;
79015;SDS011;72726;44.842;37.556;2024-02-26T02:15:05;10.80;;;3.70;;
79015;SDS011;72726;44.842;37.556;2024-02-26T02:16:07;10.88;;;4.00;;
79015;SDS011;72726;44.842;37.556;2024-02-26T02:17:08;9.13;;;3.60;;
79015;SDS011;72726;44.842;37.556;2024-02-26T02:18:10;9.35;;;3.72;;
79015;SDS011;72726;44.842;37.556;2024-02-26T02:19:11;9.63;;;3.67;;
79015;SDS011;72726;44.842;37.556;2024-02-26T02:20:16;10.98;;;3.95;;
79015;SDS011;72726;44.842;37.556;2024-02-26T02:21:18;8.60;;;3.97;;
79015;SDS011;72726;44.842;37.556;2024-02-26T02:22:19;9.70;;;3.63;;
79015;SDS011;72726;44.842;37.556;2024-02-26T02:23:20;11.68;;;3.45;;
79015;SDS011;72726;44.842;37.556;2024-02-26T02:24:22;7.30;;;3.08;;
79015;SDS011;72726;44.842;37.556;2024-02-26T02:25:23;8.93;;;3.53;;
79015;SDS011;72726;44.842;37.556;2024-02-26T02:26:24;12.50;;;3.85;;
79015;SDS011;72726;44.842;37.556;2024-02-26T02:27:25;10.68;;;3.92;;
79015;SDS011;72726;44.842;37.556;2024-02-26T02:28:27;10.98;;;3.75;;
79015;SDS011;72726;44.842;37.556;2024-02-26T02:29:29;9.65;;;3.80;;
79015;SDS011;72726;44.842;37.556;2024-02-26T02:30:30;11.77;;;3.90;;
79015;SDS011;72726;44.842;37.556;2024-02-26T02:31:33;11.25;;;4.20;;
79015;SDS011;72726;44.842;37.556;2024-02-26T02:32:35;9.82;;;4.20;;
79015;SDS011;72726;44.842;37.556;2024-02-26T02:33:40;10.07;;;3.92;;
79015;SDS011;72726;44.842;37.556;2024-02-26T02:34:41;14.63;;;4.15;;
79015;SDS011;72726;44.842;37.556;2024-02-26T02:35:43;11.82;;;4.18;;
79015;SDS011;72726;44.842;37.556;2024-02-26T02:36:53;11.68;;;4.10;;
79015;SDS011;72726;44.842;37.556;2024-02-26T02:37:56;9.23;;;4.00;;
79015;SDS011;72726;44.842;37.556;2024-02-26T02:38:58;10.63;;;4.63;;
79015;SDS011;72726;44.842;37.556;2024-02-26T02:39:59;9.82;;;4.10;;
79015;SDS011;72726;44.842;37.556;2024-02-26T02:41:00;11.27;;;3.90;;
79015;SDS011;72726;44.842;37.556;2024-02-26T02:42:02;9.50;;;4.18;;
79015;SDS011;72726;44.842;37.556;2024-02-26T02:43:03;8.50;;;3.65;;
79015;SDS011;72726;44.842;37.556;2024-02-26T02:44:05;11.13;;;4.75;;
79015;SDS011;72726;44.842;37.556;2024-02-26T02:45:06;11.00;;;4.32;;
79015;SDS011;72726;44.842;37.556;2024-02-26T02:46:08;13.00;;;4.28;;
79015;SDS011;72726;44.842;37.556;2024-02-26T02:47:09;10.75;;;4.45;;
79015;SDS011;72726;44.842;37.556;2024-02-26T02:48:11;10.07;;;3.83;;
79015;SDS011;72726;44.842;37.556;2024-02-26T02:49:12;10.05;;;3.90;;
79015;SDS011;72726;44.842;37.556;2024-02-26T02:50:13;10.13;;;3.67;;
79015;SDS011;72726;44.842;37.556;2024-02-26T02:51:14;15.43;;;4.30;;
79015;SDS011;72726;44.842;37.556;2024-02-26T02:52:16;11.20;;;3.65;;
79015;SDS011;72726;44.842;37.556;2024-02-26T02:53:17;14.07;;;4.13;;
79015;SDS011;72726;44.842;37.556;2024-02-26T02:54:19;9.85;;;4.55;;
79015;SDS011;72726;44.842;37.556;2024-02-26T02:55:20;13.00;;;5.95;;
79015;SDS011;72726;44.842;37.556;2024-02-26T02:56:21;15.00;;;6.57;;
79015;SDS011;72726;44.842;37.556;2024-02-26T02:57:22;13.50;;;4.53;;
79015;SDS011;72726;44.842;37.556;2024-02-26T02:58:24;9.90;;;4.90;;
79015;SDS011;72726;44.842;37.556;2024-02-26T02:59:25;13.57;;;5.03;;
79015;SDS011;72726;44.842;37.556;2024-02-26T03:00:26;12.40;;;4.47;;
79015;SDS011;72726;44.842;37.556;2024-02-26T03:01:27;9.10;;;4.18;;
79015;SDS011;72726;44.842;37.556;2024-02-26T03:02:28;13.90;;;4.40;;
79015;SDS011;72726;44.842;37.556;2024-02-26T03:03:30;11.93;;;4.85;;
79015;SDS011;72726;44.842;37.556;2024-02-26T03:04:31;9.77;;;3.97;;
79015;SDS011;72726;44.842;37.556;2024-02-26T03:05:33;13.65;;;6.20;;
79015;SDS011;72726;44.842;37.556;2024-02-26T03:06:34;13.20;;;5.90;;
79015;SDS011;72726;44.842;37.556;2024-02-26T03:07:35;10.60;;;4.93;;
79015;SDS011;72726;44.842;37.556;2024-02-26T03:08:36;10.10;;;4.07;;
79015;SDS011;72726;44.842;37.556;2024-02-26T03:09:38;10.13;;;3.58;;
79015;SDS011;72726;44.842;37.556;2024-02-26T03:10:39;9.95;;;3.83;;
79015;SDS011;72726;44.842;37.556;2024-02-26T03:11:41;11.63;;;3.92;;
79015;SDS011;72726;44.842;37.556;2024-02-26T03:12:42;9.52;;;3.92;;
79015;SDS011;72726;44.842;37.556;2024-02-26T03:13:43;8.98;;;3.95;;
79015;SDS011;72726;44.842;37.556;2024-02-26T03:14:44;9.95;;;3.78;;
79015;SDS011;72726;44.842;37.556;2024-02-26T03:15:46;8.60;;;3.33;;
79015;SDS011;72726;44.842;37.556;2024-02-26T03:16:47;9.45;;;3.58;;
79015;SDS011;72726;44.842;37.556;2024-02-26T03:17:48;8.60;;;3.67;;
79015;SDS011;72726;44.842;37.556;2024-02-26T03:18:49;8.77;;;4.18;;
79015;SDS011;72726;44.842;37.556;2024-02-26T03:19:50;8.95;;;3.70;;
79015;SDS011;72726;44.842;37.556;2024-02-26T03:20:54;11.60;;;4.53;;
79015;SDS011;72726;44.842;37.556;2024-02-26T03:21:55;10.65;;;4.30;;
79015;SDS011;72726;44.842;37.556;2024-02-26T03:22:56;8.07;;;3.75;;
79015;SDS011;72726;44.842;37.556;2024-02-26T03:23:57;7.45;;;3.58;;
79015;SDS011;72726;44.842;37.556;2024-02-26T03:24:58;12.02;;;4.63;;
79015;SDS011;72726;44.842;37.556;2024-02-26T03:25:59;13.77;;;5.85;;
79015;SDS011;72726;44.842;37.556;2024-02-26T03:27:01;15.77;;;6.00;;
79015;SDS011;72726;44.842;37.556;2024-02-26T03:28:02;19.85;;;7.68;;
79015;SDS011;72726;44.842;37.556;2024-02-26T03:29:04;18.20;;;8.02;;
79015;SDS011;72726;44.842;37.556;2024-02-26T03:30:05;17.83;;;6.93;;
79015;SDS011;72726;44.842;37.556;2024-02-26T03:31:07;14.43;;;5.82;;
79015;SDS011;72726;44.842;37.556;2024-02-26T03:32:08;12.88;;;5.38;;
79015;SDS011;72726;44.842;37.556;2024-02-26T03:33:09;10.80;;;4.82;;
79015;SDS011;72726;44.842;37.556;2024-02-26T03:34:11;12.13;;;5.85;;
79015;SDS011;72726;44.842;37.556;2024-02-26T03:35:13;10.40;;;4.18;;
79015;SDS011;72726;44.842;37.556;2024-02-26T03:36:14;13.18;;;4.78;;
79015;SDS011;72726;44.842;37.556;2024-02-26T03:37:15;11.25;;;4.03;;
79015;SDS011;72726;44.842;37.556;2024-02-26T03:38:17;11.45;;;4.00;;
79015;SDS011;72726;44.842;37.556;2024-02-26T03:39:18;11.00;;;3.67;;
79015;SDS011;72726;44.842;37.556;2024-02-26T03:40:19;10.02;;;3.95;;
79015;SDS011;72726;44.842;37.556;2024-02-26T03:41:21;10.30;;;3.80;;
79015;SDS011;72726;44.842;37.556;2024-02-26T03:42:22;9.45;;;3.97;;
79015;SDS011;72726;44.842;37.556;2024-02-26T03:43:23;11.90;;;3.38;;
79015;SDS011;72726;44.842;37.556;2024-02-26T03:44:24;13.48;;;3.60;;
79015;SDS011;72726;44.842;37.556;2024-02-26T03:45:25;9.85;;;3.25;;
79015;SDS011;72726;44.842;37.556;2024-02-26T03:46:27;9.60;;;3.45;;
79015;SDS011;72726;44.842;37.556;2024-02-26T03:47:28;7.93;;;3.28;;
79015;SDS011;72726;44.842;37.556;2024-02-26T03:48:30;11.45;;;3.58;;
79015;SDS011;72726;44.842;37.556;2024-02-26T03:49:31;7.70;;;3.17;;
79015;SDS011;72726;44.842;37.556;2024-02-26T03:50:32;10.52;;;3.58;;
79015;SDS011;72726;44.842;37.556;2024-02-26T03:51:34;9.20;;;3.20;;
79015;SDS011;72726;44.842;37.556;2024-02-26T03:52:35;8.65;;;3.58;;
79015;SDS011;72726;44.842;37.556;2024-02-26T03:53:36;8.82;;;3.47;;
79015;SDS011;72726;44.842;37.556;2024-02-26T03:54:37;13.82;;;3.45;;
79015;SDS011;72726;44.842;37.556;2024-02-26T03:55:38;9.23;;;3.30;;
79015;SDS011;72726;44.842;37.556;2024-02-26T03:56:42;7.90;;;3.50;;
79015;SDS011;72726;44.842;37.556;2024-02-26T03:57:43;10.20;;;3.83;;
79015;SDS011;72726;44.842;37.556;2024-02-26T03:58:44;9.18;;;3.83;;
79015;SDS011;72726;44.842;37.556;2024-02-26T03:59:45;9.45;;;3.72;;
79015;SDS011;72726;44.842;37.556;2024-02-26T04:00:46;8.32;;;3.53;;
79015;SDS011;72726;44.842;37.556;2024-02-26T04:01:51;11.75;;;3.75;;
79015;SDS011;72726;44.842;37.556;2024-02-26T04:02:52;11.65;;;3.70;;
79015;SDS011;72726;44.842;37.556;2024-02-26T04:03:53;7.63;;;3.40;;
79015;SDS011;72726;44.842;37.556;2024-02-26T04:04:55;12.80;;;3.75;;
79015;SDS011;72726;44.842;37.556;2024-02-26T04:05:56;12.43;;;4.00;;
79015;SDS011;72726;44.842;37.556;2024-02-26T04:06:57;9.85;;;3.47;;
79015;SDS011;72726;44.842;37.556;2024-02-26T04:07:59;10.23;;;3.80;;
79015;SDS011;72726;44.842;37.556;2024-02-26T04:09:00;10.23;;;3.45;;
79015;SDS011;72726;44.842;37.556;2024-02-26T04:10:08;11.40;;;3.75;;
79015;SDS011;72726;44.842;37.556;2024-02-26T04:11:13;14.43;;;3.60;;
79015;SDS011;72726;44.842;37.556;2024-02-26T04:12:18;10.35;;;3.67;;
79015;SDS011;72726;44.842;37.556;2024-02-26T04:13:19;11.50;;;4.30;;
79015;SDS011;72726;44.842;37.556;2024-02-26T04:14:20;9.57;;;3.70;;
79015;SDS011;72726;44.842;37.556;2024-02-26T04:15:21;10.63;;;4.10;;
79015;SDS011;72726;44.842;37.556;2024-02-26T04:16:22;11.07;;;4.13;;
79015;SDS011;72726;44.842;37.556;2024-02-26T04:17:23;11.68;;;4.35;;
79015;SDS011;72726;44.842;37.556;2024-02-26T04:18:25;9.95;;;4.03;;
79015;SDS011;72726;44.842;37.556;2024-02-26T04:19:26;10.40;;;3.40;;
79015;SDS011;72726;44.842;37.556;2024-02-26T04:20:27;9.10;;;3.53;;
79015;SDS011;72726;44.842;37.556;2024-02-26T04:21:28;8.63;;;3.70;;
79015;SDS011;72726;44.842;37.556;2024-02-26T04:22:29;9.95;;;3.90;;
79015;SDS011;72726;44.842;37.556;2024-02-26T04:23:30;14.45;;;4.63;;
79015;SDS011;72726;44.842;37.556;2024-02-26T04:24:32;11.18;;;4.00;;
79015;SDS011;72726;44.842;37.556;2024-02-26T04:25:33;11.02;;;4.03;;
79015;SDS011;72726;44.842;37.556;2024-02-26T04:26:34;10.80;;;4.15;;
79015;SDS011;72726;44.842;37.556;2024-02-26T04:27:35;11.25;;;3.58;;
79015;SDS011;72726;44.842;37.556;2024-02-26T04:28:36;11.77;;;4.18;;
79015;SDS011;72726;44.842;37.556;2024-02-26T04:29:37;15.55;;;4.63;;
79015;SDS011;72726;44.842;37.556;2024-02-26T04:30:39;10.98;;;4.45;;
79015;SDS011;72726;44.842;37.556;2024-02-26T04:31:40;11.07;;;4.45;;
79015;SDS011;72726;44.842;37.556;2024-02-26T04:32:43;9.65;;;4.22;;
79015;SDS011;72726;44.842;37.556;2024-02-26T04:33:44;13.77;;;4.53;;
79015;SDS011;72726;44.842;37.556;2024-02-26T04:34:45;11.45;;;4.95;;
79015;SDS011;72726;44.842;37.556;2024-02-26T04:35:46;14.98;;;4.88;;
79015;SDS011;72726;44.842;37.556;2024-02-26T04:36:48;10.00;;;4.20;;
79015;SDS011;72726;44.842;37.556;2024-02-26T04:37:49;12.88;;;4.28;;
79015;SDS011;72726;44.842;37.556;2024-02-26T04:38:50;10.38;;;4.20;;
79015;SDS011;72726;44.842;37.556;2024-02-26T04:39:52;12.80;;;4.35;;
79015;SDS011;72726;44.842;37.556;2024-02-26T04:40:53;10.65;;;4.00;;
79015;SDS011;72726;44.842;37.556;2024-02-26T04:41:54;10.50;;;4.10;;
79015;SDS011;72726;44.842;37.556;2024-02-26T04:42:55;14.40;;;4.10;;
79015;SDS011;72726;44.842;37.556;2024-02-26T04:43:56;13.93;;;4.53;;
79015;SDS011;72726;44.842;37.556;2024-02-26T04:44:58;10.75;;;3.80;;
79015;SDS011;72726;44.842;37.556;2024-02-26T04:45:59;9.15;;;3.63;;
79015;SDS011;72726;44.842;37.556;2024-02-26T04:47:00;10.07;;;3.67;;
79015;SDS011;72726;44.842;37.556;2024-02-26T04:48:02;10.75;;;3.65;;
79015;SDS011;72726;44.842;37.556;2024-02-26T04:49:03;9.77;;;4.25;;
79015;SDS011;72726;44.842;37.556;2024-02-26T04:50:05;12.23;;;4.45;;
79015;SDS011;72726;44.842;37.556;2024-02-26T04:51:06;13.70;;;4.82;;
79015;SDS011;72726;44.842;37.556;2024-02-26T04:52:07;11.30;;;3.88;;
79015;SDS011;72726;44.842;37.556;2024-02-26T04:53:09;12.52;;;4.03;;
79015;SDS011;72726;44.842;37.556;2024-02-26T04:54:10;9.23;;;4.15;;
79015;SDS011;72726;44.842;37.556;2024-02-26T04:55:11;11.93;;;4.95;;
79015;SDS011;72726;44.842;37.556;2024-02-26T04:56:12;14.25;;;4.30;;
79015;SDS011;72726;44.842;37.556;2024-02-26T04:57:14;11.88;;;4.20;;
79015;SDS011;72726;44.842;37.556;2024-02-26T04:58:15;12.18;;;4.40;;
79015;SDS011;72726;44.842;37.556;2024-02-26T04:59:16;9.23;;;3.97;;
79015;SDS011;72726;44.842;37.556;2024-02-26T05:00:17;12.05;;;3.95;;
79015;SDS011;72726;44.842;37.556;2024-02-26T05:01:19;11.75;;;3.88;;
79015;SDS011;72726;44.842;37.556;2024-02-26T05:02:20;15.30;;;4.57;;
79015;SDS011;72726;44.842;37.556;2024-02-26T05:03:21;13.05;;;4.72;;
79015;SDS011;72726;44.842;37.556;2024-02-26T05:04:22;12.10;;;3.92;;
79015;SDS011;72726;44.842;37.556;2024-02-26T05:05:23;17.15;;;4.57;;
79015;SDS011;72726;44.842;37.556;2024-02-26T05:06:24;12.70;;;3.60;;
79015;SDS011;72726;44.842;37.556;2024-02-26T05:07:25;13.63;;;4.57;;
79015;SDS011;72726;44.842;37.556;2024-02-26T05:08:26;11.73;;;4.43;;
79015;SDS011;72726;44.842;37.556;2024-02-26T05:09:28;12.43;;;3.78;;
79015;SDS011;72726;44.842;37.556;2024-02-26T05:10:29;15.07;;;4.25;;
79015;SDS011;72726;44.842;37.556;2024-02-26T05:11:30;15.25;;;4.32;;
79015;SDS011;72726;44.842;37.556;2024-02-26T05:12:32;17.70;;;4.50;;
79015;SDS011;72726;44.842;37.556;2024-02-26T05:13:35;13.57;;;3.90;;
79015;SDS011;72726;44.842;37.556;2024-02-26T05:14:39;12.38;;;4.53;;
79015;SDS011;72726;44.842;37.556;2024-02-26T05:15:40;11.57;;;3.90;;
79015;SDS011;72726;44.842;37.556;2024-02-26T05:16:41;13.70;;;4.47;;
79015;SDS011;72726;44.842;37.556;2024-02-26T05:17:42;15.77;;;4.75;;
79015;SDS011;72726;44.842;37.556;2024-02-26T05:18:44;14.75;;;4.53;;
79015;SDS011;72726;44.842;37.556;2024-02-26T05:19:45;11.38;;;4.78;;
79015;SDS011;72726;44.842;37.556;2024-02-26T05:20:46;12.90;;;4.38;;
79015;SDS011;72726;44.842;37.556;2024-02-26T05:21:47;17.35;;;4.53;;
79015;SDS011;72726;44.842;37.556;2024-02-26T05:22:49;16.02;;;4.90;;
79015;SDS011;72726;44.842;37.556;2024-02-26T05:23:51;11.65;;;4.53;;
79015;SDS011;72726;44.842;37.556;2024-02-26T05:24:52;16.95;;;4.70;;
79015;SDS011;72726;44.842;37.556;2024-02-26T05:25:54;12.13;;;4.40;;
79015;SDS011;72726;44.842;37.556;2024-02-26T05:26:55;13.48;;;4.85;;
79015;SDS011;72726;44.842;37.556;2024-02-26T05:27:56;12.93;;;5.43;;
79015;SDS011;72726;44.842;37.556;2024-02-26T05:28:58;13.32;;;5.00;;
79015;SDS011;72726;44.842;37.556;2024-02-26T05:30:00;13.38;;;4.72;;
79015;SDS011;72726;44.842;37.556;2024-02-26T05:31:01;13.65;;;5.22;;
79015;SDS011;72726;44.842;37.556;2024-02-26T05:32:04;17.90;;;5.18;;
79015;SDS011;72726;44.842;37.556;2024-02-26T05:33:06;16.35;;;5.78;;
79015;SDS011;72726;44.842;37.556;2024-02-26T05:34:07;16.45;;;4.85;;
79015;SDS011;72726;44.842;37.556;2024-02-26T05:35:09;18.95;;;5.65;;
79015;SDS011;72726;44.842;37.556;2024-02-26T05:36:10;16.10;;;5.82;;
79015;SDS011;72726;44.842;37.556;2024-02-26T05:37:19;12.73;;;5.15;;
79015;SDS011;72726;44.842;37.556;2024-02-26T05:38:20;15.57;;;5.43;;
79015;SDS011;72726;44.842;37.556;2024-02-26T05:39:21;19.80;;;5.45;;
79015;SDS011;72726;44.842;37.556;2024-02-26T05:40:22;14.98;;;5.05;;
79015;SDS011;72726;44.842;37.556;2024-02-26T05:41:24;12.77;;;4.72;;
79015;SDS011;72726;44.842;37.556;2024-02-26T05:42:27;17.05;;;4.80;;
79015;SDS011;72726;44.842;37.556;2024-02-26T05:43:28;10.52;;;4.40;;
79015;SDS011;72726;44.842;37.556;2024-02-26T05:44:30;17.08;;;4.97;;
79015;SDS011;72726;44.842;37.556;2024-02-26T05:45:31;15.00;;;4.50;;
79015;SDS011;72726;44.842;37.556;2024-02-26T05:46:32;17.55;;;5.03;;
79015;SDS011;72726;44.842;37.556;2024-02-26T05:47:33;11.73;;;4.75;;
79015;SDS011;72726;44.842;37.556;2024-02-26T05:48:35;12.98;;;5.85;;
79015;SDS011;72726;44.842;37.556;2024-02-26T05:49:36;15.73;;;4.80;;
79015;SDS011;72726;44.842;37.556;2024-02-26T05:50:38;13.52;;;5.47;;
79015;SDS011;72726;44.842;37.556;2024-02-26T05:51:39;10.55;;;4.75;;
79015;SDS011;72726;44.842;37.556;2024-02-26T05:52:40;13.55;;;4.40;;
79015;SDS011;72726;44.842;37.556;2024-02-26T05:53:41;12.98;;;4.50;;
79015;SDS011;72726;44.842;37.556;2024-02-26T05:54:42;26.15;;;6.05;;
79015;SDS011;72726;44.842;37.556;2024-02-26T05:55:44;9.65;;;3.95;;
79015;SDS011;72726;44.842;37.556;2024-02-26T05:56:45;9.63;;;3.85;;
79015;SDS011;72726;44.842;37.556;2024-02-26T05:57:46;8.68;;;3.97;;
79015;SDS011;72726;44.842;37.556;2024-02-26T05:58:47;9.45;;;4.35;;
79015;SDS011;72726;44.842;37.556;2024-02-26T05:59:48;10.98;;;4.18;;
79015;SDS011;72726;44.842;37.556;2024-02-26T06:00:49;9.18;;;4.43;;
79015;SDS011;72726;44.842;37.556;2024-02-26T06:01:51;11.43;;;4.50;;
79015;SDS011;72726;44.842;37.556;2024-02-26T06:02:52;9.55;;;4.07;;